Time;durP1;ratioP1;P1;durP2;ratioP2;P2;SDS_P1;SDS_P2;PMS_P1;PMS_P2;Temp;Humidity;BMP_temperature;BMP_pressure;BME280_temperature;BME280_humidity;BME280_pressure;Samples;Min_cycle;Max_cycle;Signal;HPM_P1;HPM_P2
2024/04/14 00:05:22;;;;;;;7.10;4.40;;;;;;;16.51;63.39;100366.63;33610523;26;20512;-71
2024/04/14 00:20:26;;;;;;;6.57;3.37;;;;;;;16.52;63.48;100365.41;33612933;26;20015;-70
2024/04/14 00:35:29;;;;;;;6.07;3.30;;;;;;;16.72;64.33;100362.28;33604335;26;20014;-70
2024/04/14 00:50:31;;;;;;;9.23;3.83;;;;;;;16.65;63.95;100349.63;33607982;26;20420;-72
2024/04/14 01:05:34;;;;;;;6.67;3.93;;;;;;;16.54;64.50;100351.97;33592798;26;20431;-71
2024/04/14 01:20:36;;;;;;;6.33;3.73;;;;;;;16.40;66.30;100340.84;33572574;26;20003;-70
2024/04/14 01:35:39;;;;;;;7.00;3.73;;;;;;;16.09;67.33;100340.88;33575268;26;19999;-71
2024/04/14 01:50:41;;;;;;;10.27;4.23;;;;;;;16.09;68.31;100354.56;33577942;26;20043;-71
2024/04/14 02:05:43;;;;;;;8.90;3.37;;;;;;;15.93;69.82;100345.38;33598634;26;20049;-72
2024/04/14 02:20:45;;;;;;;9.77;3.40;;;;;;;15.82;71.15;100358.72;33598433;26;20011;-69
2024/04/14 02:35:55;;;;;;;6.17;3.60;;;;;;;15.99;71.53;100372.94;33565984;26;20018;-71
2024/04/14 02:51:00;;;;;;;8.10;4.20;;;;;;;15.68;72.74;100375.63;33587121;26;20459;-70
2024/04/14 03:06:03;;;;;;;6.83;4.00;;;;;;;15.95;73.43;100384.00;33591000;26;20007;-70
2024/04/14 03:21:05;;;;;;;7.77;3.70;;;;;;;16.12;71.62;100392.00;33611405;26;20007;-72
2024/04/14 03:36:08;;;;;;;6.13;3.77;;;;;;;16.30;70.53;100400.31;33617678;26;19996;-72
2024/04/14 03:51:10;;;;;;;4.90;3.40;;;;;;;16.07;72.69;100381.63;33618949;26;20017;-71
2024/04/14 04:06:13;;;;;;;8.10;3.03;;;;;;;16.39;71.16;100383.91;33610587;26;20345;-71
2024/04/14 04:21:15;;;;;;;7.33;2.97;;;;;;;17.36;67.49;100390.50;33618671;26;20050;-72
2024/04/14 04:36:17;;;;;;;5.57;3.10;;;;;;;18.15;63.01;100411.78;33579313;26;19999;-70
2024/04/14 04:51:19;;;;;;;5.20;3.15;;;;;;;18.58;62.28;100411.31;33622120;26;20381;-73
2024/04/14 05:06:22;;;;;;;7.65;3.90;;;;;;;19.59;61.04;100413.44;33611234;26;20000;-71
2024/04/14 05:21:24;;;;;;;12.40;3.90;;;;;;;20.08;62.25;100415.53;33619260;26;20044;-72
2024/04/14 05:36:26;;;;;;;16.65;4.60;;;;;;;20.46;61.12;100406.38;33614898;26;20358;-73
2024/04/14 05:51:31;;;;;;;9.38;3.78;;;;;;;21.21;61.32;100402.91;33612341;26;20000;-71
2024/04/14 06:06:49;;;;;;;7.55;3.72;;;;;;;22.34;58.86;100394.44;33614212;26;20010;-74
2024/04/14 06:21:52;;;;;;;7.07;3.10;;;;;;;23.26;56.61;100388.38;33613444;26;20004;-74
2024/04/14 06:36:55;;;;;;;3.33;2.27;;;;;;;24.20;53.14;100372.34;33539485;26;20000;-74
2024/04/14 06:51:57;;;;;;;5.40;2.72;;;;;;;25.07;50.25;100374.69;33594200;26;20019;-74
2024/04/14 07:07:00;;;;;;;2.83;2.13;;;;;;;26.04;46.66;100363.94;33581659;26;20023;-75
2024/04/14 07:22:04;;;;;;;3.60;2.10;;;;;;;26.60;44.96;100363.41;33560483;26;20014;-74
2024/04/14 07:37:07;;;;;;;5.30;1.98;;;;;;;27.47;42.98;100359.25;33563650;26;20015;-74
2024/04/14 07:52:09;;;;;;;3.10;1.45;;;;;;;28.30;40.66;100352.88;33539353;26;20728;-74
2024/04/14 08:07:12;;;;;;;5.00;1.48;;;;;;;28.90;39.20;100339.00;33575295;26;20011;-76
2024/04/14 08:22:14;;;;;;;4.13;2.08;;;;;;;29.30;37.32;100344.47;33563773;26;20031;-73
2024/04/14 08:37:17;;;;;;;2.38;1.80;;;;;;;27.93;39.17;100326.59;33573761;26;20007;-73
2024/04/14 08:52:24;;;;;;;5.80;2.13;;;;;;;30.27;36.58;100311.56;33526265;26;20036;-74
2024/04/14 09:07:26;;;;;;;4.00;1.83;;;;;;;30.74;35.35;100303.59;33598795;26;20051;-74
2024/04/14 09:22:28;;;;;;;4.88;2.20;;;;;;;30.10;35.60;100289.63;33554512;26;20076;-73
2024/04/14 09:37:32;;;;;;;3.05;1.75;;;;;;;30.56;35.07;100273.84;33588876;26;20015;-72
2024/04/14 09:52:36;;;;;;;6.45;2.65;;;;;;;30.98;33.42;100279.19;33596565;26;19996;-74
2024/04/14 10:07:38;;;;;;;4.35;2.80;;;;;;;30.34;34.26;100249.25;33564277;26;20012;-74
2024/04/14 10:22:42;;;;;;;3.83;1.83;;;;;;;30.25;34.51;100232.97;33551685;26;20003;-73
2024/04/14 10:37:54;;;;;;;4.47;1.85;;;;;;;31.15;32.21;100226.22;33621793;26;20008;-75
2024/04/14 10:52:57;;;;;;;7.43;2.08;;;;;;;32.00;31.83;100191.91;33581375;26;20035;-75
2024/04/14 11:08:00;;;;;;;5.13;2.53;;;;;;;31.17;31.48;100198.38;33527822;26;20078;-73
2024/04/14 11:23:03;;;;;;;4.20;1.98;;;;;;;31.76;31.69;100175.69;33390624;26;20015;-74
2024/04/14 11:38:06;;;;;;;4.57;2.22;;;;;;;31.70;30.83;100163.91;33438769;26;20007;-75
2024/04/14 11:53:08;;;;;;;6.28;2.97;;;;;;;30.16;32.50;100142.63;33513084;26;20011;-73
2024/04/14 12:08:10;;;;;;;6.05;2.80;;;;;;;29.99;32.80;100119.97;33503043;26;20003;-73
2024/04/14 12:23:12;;;;;;;4.95;2.00;;;;;;;29.23;33.24;100088.72;33615310;26;20137;-74
2024/04/14 12:38:15;;;;;;;4.20;1.80;;;;;;;28.67;34.07;100075.41;33552890;26;20599;-75
2024/04/14 12:53:19;;;;;;;3.67;2.20;;;;;;;28.63;32.75;100067.34;33499323;26;20011;-74
2024/04/14 13:08:21;;;;;;;4.78;1.80;;;;;;;28.19;32.77;100049.59;33534415;26;20351;-75
2024/04/14 13:23:23;;;;;;;2.53;1.63;;;;;;;28.12;32.93;100042.63;33469972;26;20008;-75
2024/04/14 13:38:26;;;;;;;10.60;2.00;;;;;;;28.14;32.52;100034.47;33480374;26;20004;-75
2024/04/14 13:53:28;;;;;;;5.40;2.05;;;;;;;27.30;33.30;100027.09;33585144;26;19999;-75
2024/04/14 14:08:30;;;;;;;6.03;2.20;;;;;;;26.82;33.00;100017.81;33600030;26;20081;-76
2024/04/14 14:23:33;;;;;;;4.95;2.47;;;;;;;27.21;33.33;100002.44;33591630;26;20011;-71
2024/04/14 14:38:36;;;;;;;4.93;2.03;;;;;;;26.97;33.06;99999.88;33501327;26;20003;-70
2024/04/14 14:53:40;;;;;;;2.35;1.63;;;;;;;26.79;33.55;99999.41;33542059;26;20007;-71
2024/04/14 15:08:43;;;;;;;4.70;2.03;;;;;;;26.37;34.00;99994.81;33572591;26;20008;-70
2024/04/14 15:23:45;;;;;;;3.53;1.70;;;;;;;25.73;34.88;99989.16;33535832;26;20513;-73
2024/04/14 15:38:48;;;;;;;34.43;14.97;;;;;;;25.64;35.24;99986.75;33585534;26;20042;-69
2024/04/14 15:53:50;;;;;;;5.53;1.93;;;;;;;25.20;35.54;99977.66;33537629;26;20016;-69
2024/04/14 16:08:56;;;;;;;3.17;1.37;;;;;;;25.19;35.77;99980.94;33560760;26;20237;-70
2024/04/14 16:23:59;;;;;;;3.38;1.52;;;;;;;25.31;35.50;99971.94;33536480;26;20466;-73
2024/04/14 16:39:02;;;;;;;2.33;1.50;;;;;;;24.98;35.45;99978.66;33602050;26;20479;-70
2024/04/14 16:54:04;;;;;;;3.67;1.50;;;;;;;24.58;35.88;99980.25;33574131;26;19999;-72
2024/04/14 17:09:06;;;;;;;5.18;1.90;;;;;;;24.32;36.30;99969.66;33573961;26;19996;-72
2024/04/14 17:24:08;;;;;;;9.05;2.25;;;;;;;23.88;37.09;99987.28;33577261;26;20000;-79
2024/04/14 17:39:12;;;;;;;6.13;2.20;;;;;;;23.63;37.79;99988.44;33614621;26;19999;-76
2024/04/14 17:54:16;;;;;;;15.00;6.00;;;;;;;23.43;38.45;99986.72;33561188;26;20003;-77
2024/04/14 18:09:18;;;;;;;14.23;3.83;;;;;;;23.10;39.48;99982.84;33519555;26;20382;-78
2024/04/14 18:24:21;;;;;;;5.22;2.10;;;;;;;22.88;40.35;99971.06;33563593;26;20257;-77
2024/04/14 18:39:24;;;;;;;6.53;3.25;;;;;;;22.69;42.00;99966.00;33567170;26;20008;-80
2024/04/14 18:54:26;;;;;;;4.75;3.03;;;;;;;22.79;43.40;99975.59;33492841;26;20956;-75
2024/04/14 19:09:29;;;;;;;9.98;3.90;;;;;;;22.27;46.37;99963.53;33521417;26;20402;-73
2024/04/14 19:24:31;;;;;;;9.55;3.20;;;;;;;22.35;47.84;99965.28;33508861;26;20000;-75
2024/04/14 19:39:34;;;;;;;5.82;3.10;;;;;;;21.84;54.34;99960.94;33574132;26;20008;-72
2024/04/14 19:54:36;;;;;;;6.78;3.33;;;;;;;21.73;61.84;99947.09;33610204;26;20011;-73
2024/04/14 20:09:39;;;;;;;5.15;3.28;;;;;;;21.13;70.29;99943.59;33576252;26;20463;-71
2024/04/14 20:24:41;;;;;;;6.38;2.83;;;;;;;21.19;76.06;99930.56;33640163;26;20003;-73
2024/04/14 20:39:45;;;;;;;7.43;3.20;;;;;;;21.14;79.04;99931.28;33623877;26;20008;-74
2024/04/14 20:54:47;;;;;;;6.25;3.08;;;;;;;20.70;83.86;99918.03;33544916;26;20007;-72
2024/04/14 21:09:50;;;;;;;5.85;3.70;;;;;;;20.68;83.42;99912.25;33598452;26;20012;-75
2024/04/14 21:24:52;;;;;;;6.00;3.40;;;;;;;20.55;85.32;99890.59;33552228;26;20059;-73
2024/04/14 21:39:55;;;;;;;6.38;3.58;;;;;;;20.48;87.19;99880.03;33621526;26;20651;-73
2024/04/14 21:54:58;;;;;;;6.55;3.70;;;;;;;20.27;93.89;99848.28;33556661;26;20012;-72
2024/04/14 22:10:00;;;;;;;17.38;6.95;;;;;;;20.14;98.30;99845.16;33544620;26;20010;-73
2024/04/14 22:25:03;;;;;;;9.82;4.50;;;;;;;19.99;100.00;99829.53;33527657;26;20019;-72
2024/04/14 22:40:06;;;;;;;5.78;3.63;;;;;;;19.90;100.00;99804.91;33570332;26;20008;-75
2024/04/14 22:55:09;;;;;;;4.57;3.83;;;;;;;19.45;100.00;99805.75;33603915;26;20004;-72
2024/04/14 23:10:11;;;;;;;5.55;3.63;;;;;;;19.51;100.00;99801.09;33550001;26;20003;-72
2024/04/14 23:25:14;;;;;;;4.65;3.97;;;;;;;19.43;100.00;99784.97;33590447;26;20004;-72
2024/04/14 23:40:17;;;;;;;4.28;3.22;;;;;;;19.34;100.00;99779.66;33559250;26;20028;-72
2024/04/14 23:55:20;;;;;;;8.18;3.88;;;;;;;19.13;100.00;99761.69;33580567;26;20007;-75
